Time;durP1;ratioP1;P1;durP2;ratioP2;P2;SDS_P1;SDS_P2;PMS_P1;PMS_P2;Temp;Humidity;BMP_temperature;BMP_pressure;BME280_temperature;BME280_humidity;BME280_pressure;Samples;Min_cycle;Max_cycle;Signal;HPM_P1;HPM_P2
2022/03/15 00:02:30;;;;;;;17.05;11.10;;;;;;;;;;7334942;19;162178;-13
2022/03/15 00:05:01;;;;;;;18.00;11.77;;;;;;;;;;7332701;19;162564;-14
2022/03/15 00:07:33;;;;;;;17.85;10.77;;;;;;;;;;7331569;19;154012;-15
2022/03/15 00:10:08;;;;;;;17.53;11.13;;;;;;;;;;7332358;19;153647;-15
2022/03/15 00:12:41;;;;;;;15.15;10.88;;;;;;;;;;7331160;19;161559;-14
2022/03/15 00:15:14;;;;;;;15.03;10.03;;;;;;;;;;7330842;19;162527;-15
2022/03/15 00:17:49;;;;;;;15.95;10.88;;;;;;;;;;7333101;19;154291;-15
2022/03/15 00:20:23;;;;;;;16.13;11.30;;;;;;;;;;7334225;19;153884;-14
2022/03/15 00:22:57;;;;;;;15.23;10.82;;;;;;;;;;7330762;19;162062;-14
2022/03/15 00:25:30;;;;;;;17.33;11.13;;;;;;;;;;7326879;19;162522;-14
2022/03/15 00:28:01;;;;;;;27.17;11.15;;;;;;;;;;7327248;19;154018;-15
2022/03/15 00:30:32;;;;;;;14.85;9.35;;;;;;;;;;7331187;19;153535;-14
2022/03/15 00:33:08;;;;;;;15.73;9.57;;;;;;;;;;7330569;19;161847;-15
2022/03/15 00:35:39;;;;;;;16.67;10.25;;;;;;;;;;7331635;19;162988;-15
2022/03/15 00:38:11;;;;;;;14.43;9.73;;;;;;;;;;7330237;19;154122;-13
2022/03/15 00:40:45;;;;;;;16.77;10.60;;;;;;;;;;7332565;19;153994;-14
2022/03/15 00:43:18;;;;;;;16.35;9.35;;;;;;;;;;7332505;19;161942;-14
2022/03/15 00:45:51;;;;;;;12.82;8.63;;;;;;;;;;7326886;19;162821;-15
2022/03/15 00:48:25;;;;;;;15.10;9.02;;;;;;;;;;7332140;19;154714;-14
2022/03/15 00:50:57;;;;;;;17.52;9.35;;;;;;;;;;7331037;19;153696;-13
2022/03/15 00:53:28;;;;;;;14.02;9.45;;;;;;;;;;7327735;19;163321;-14
2022/03/15 00:56:00;;;;;;;13.77;9.57;;;;;;;;;;7332835;19;162305;-15
2022/03/15 00:58:31;;;;;;;21.33;9.45;;;;;;;;;;7326178;19;155098;-14
2022/03/15 01:01:04;;;;;;;13.20;8.98;;;;;;;;;;7328610;19;153633;-14
2022/03/15 01:03:39;;;;;;;13.38;8.75;;;;;;;;;;7324628;19;162142;-14
2022/03/15 01:06:10;;;;;;;14.02;8.68;;;;;;;;;;7325256;19;162570;-14
2022/03/15 01:08:43;;;;;;;12.77;8.05;;;;;;;;;;7328932;19;154167;-15
2022/03/15 01:11:14;;;;;;;23.60;17.45;;;;;;;;;;7327107;19;153823;-14
2022/03/15 01:13:45;;;;;;;32.42;18.00;;;;;;;;;;7324944;19;162040;-15
2022/03/15 01:16:17;;;;;;;26.00;16.35;;;;;;;;;;7329246;19;162174;-16
2022/03/15 13:49:59;;;;;;;4.05;3.00;;;;;;;;;;7371447;19;132572;-13
2022/03/15 13:52:35;;;;;;;4.72;2.58;;;;;;;;;;7364245;19;153508;-14
2022/03/15 13:55:10;;;;;;;4.15;2.50;;;;;;;;;;7363627;19;162190;-13
2022/03/15 13:57:44;;;;;;;5.85;3.10;;;;;;;;;;7367469;19;162442;-13
2022/03/15 14:00:21;;;;;;;3.83;2.90;;;;;;;;;;7368332;19;153857;-13
2022/03/15 14:03:02;;;;;;;4.88;2.70;;;;;;;;;;7364032;19;153556;-13
2022/03/15 14:05:35;;;;;;;4.82;2.67;;;;;;;;;;7363914;19;162065;-13
2022/03/15 14:08:12;;;;;;;3.00;2.70;;;;;;;;;;7363924;19;162755;-14
2022/03/15 14:10:45;;;;;;;3.63;2.90;;;;;;;;;;7364233;19;153865;-14
2022/03/15 14:13:19;;;;;;;7.00;2.80;;;;;;;;;;7363645;19;153753;-14
2022/03/15 14:16:00;;;;;;;4.05;2.40;;;;;;;;;;7363423;19;161799;-14
2022/03/15 14:18:31;;;;;;;5.05;2.85;;;;;;;;;;7362340;19;162616;-15
2022/03/15 14:21:07;;;;;;;4.03;2.60;;;;;;;;;;7367977;19;153889;-15
2022/03/15 14:23:38;;;;;;;5.90;2.47;;;;;;;;;;7363903;19;153556;-13
2022/03/15 14:26:12;;;;;;;6.03;2.78;;;;;;;;;;7364183;19;161982;-13
2022/03/15 14:28:43;;;;;;;4.13;2.58;;;;;;;;;;7364308;19;162108;-14
2022/03/15 14:31:16;;;;;;;5.07;2.90;;;;;;;;;;7364939;19;154048;-14
2022/03/15 14:33:48;;;;;;;5.97;3.30;;;;;;;;;;7367508;19;153533;-13
2022/03/15 14:36:30;;;;;;;5.65;2.70;;;;;;;;;;7363036;19;161791;-14
2022/03/15 14:39:12;;;;;;;6.35;2.90;;;;;;;;;;7361276;19;162329;-14
2022/03/15 14:41:46;;;;;;;8.50;2.92;;;;;;;;;;7367622;19;154001;-15
2022/03/15 14:44:21;;;;;;;5.28;3.15;;;;;;;;;;7364528;19;153595;-15
2022/03/15 14:46:54;;;;;;;5.32;3.10;;;;;;;;;;7365776;19;161964;-14
2022/03/15 14:49:28;;;;;;;5.65;2.88;;;;;;;;;;7348548;19;162605;-14
2022/03/15 14:52:03;;;;;;;6.43;2.85;;;;;;;;;;7334264;19;154214;-14
2022/03/15 14:54:34;;;;;;;4.72;3.00;;;;;;;;;;7332754;19;153539;-12
2022/03/15 14:57:08;;;;;;;4.65;2.78;;;;;;;;;;7333248;19;162111;-15
2022/03/15 14:59:41;;;;;;;4.45;2.85;;;;;;;;;;7333926;19;162370;-14
2022/03/15 15:02:12;;;;;;;;;;;;;;;;;;7333129;19;154107;-14
2022/03/15 15:04:44;;;;;;;6.55;3.00;;;;;;;;;;7336159;19;153549;-15
2022/03/15 15:07:18;;;;;;;4.22;2.92;;;;;;;;;;7337437;19;161858;-15
2022/03/15 15:09:50;;;;;;;3.92;2.28;;;;;;;;;;7332987;19;162557;-13
2022/03/15 15:12:21;;;;;;;4.10;2.55;;;;;;;;;;7333544;19;154098;-14
2022/03/15 15:14:53;;;;;;;5.47;2.95;;;;;;;;;;7336762;19;153586;-16
2022/03/15 15:17:26;;;;;;;6.38;2.80;;;;;;;;;;7335927;19;161866;-15
2022/03/15 15:19:57;;;;;;;2.92;2.47;;;;;;;;;;7333571;19;162595;-15
2022/03/15 15:22:32;;;;;;;2.92;2.20;;;;;;;;;;7333157;19;154021;-14
2022/03/15 15:25:03;;;;;;;4.22;2.50;;;;;;;;;;7331752;19;153539;-15
2022/03/15 15:27:35;;;;;;;4.07;2.37;;;;;;;;;;7336888;19;161841;-14
2022/03/15 15:30:10;;;;;;;4.32;2.42;;;;;;;;;;7336457;19;162374;-14
2022/03/15 15:32:42;;;;;;;3.05;2.42;;;;;;;;;;7336371;19;154114;-13
2022/03/15 15:35:15;;;;;;;4.10;2.55;;;;;;;;;;7334345;19;153933;-13
2022/03/15 15:37:54;;;;;;;4.95;2.65;;;;;;;;;;7332502;19;161870;-13
2022/03/15 15:40:28;;;;;;;4.28;2.88;;;;;;;;;;7333820;19;162457;-15
2022/03/15 15:43:01;;;;;;;4.65;2.33;;;;;;;;;;7332599;19;154106;-16
2022/03/15 15:45:32;;;;;;;3.37;2.70;;;;;;;;;;7334954;19;153540;-16
2022/03/15 15:48:09;;;;;;;2.60;2.30;;;;;;;;;;7331312;19;161891;-13
2022/03/15 15:50:41;;;;;;;4.40;2.22;;;;;;;;;;7332289;19;162605;-14
2022/03/15 15:53:19;;;;;;;3.50;2.30;;;;;;;;;;7332579;19;154179;-13
2022/03/15 15:55:51;;;;;;;2.75;2.10;;;;;;;;;;7332308;19;153529;-13
2022/03/15 15:58:22;;;;;;;4.18;2.30;;;;;;;;;;7331969;19;161768;-15
2022/03/15 16:00:55;;;;;;;3.90;2.92;;;;;;;;;;7325955;19;162326;-14
2022/03/15 16:03:27;;;;;;;3.38;2.40;;;;;;;;;;7332212;19;154162;-14
2022/03/15 16:05:59;;;;;;;4.80;2.28;;;;;;;;;;7331834;19;153541;-15
2022/03/15 16:08:35;;;;;;;3.35;2.25;;;;;;;;;;7335410;19;161846;-15
2022/03/15 16:11:08;;;;;;;3.70;2.33;;;;;;;;;;7331592;19;162394;-15
2022/03/15 16:13:42;;;;;;;4.35;2.60;;;;;;;;;;7332478;19;154186;-15
2022/03/15 16:16:14;;;;;;;3.70;2.08;;;;;;;;;;7331603;19;153658;-14
2022/03/15 16:18:45;;;;;;;3.88;2.28;;;;;;;;;;7332344;19;162166;-16
2022/03/15 16:21:21;;;;;;;4.43;2.38;;;;;;;;;;7334974;19;162314;-15
2022/03/15 16:23:55;;;;;;;4.25;2.47;;;;;;;;;;7333264;19;153961;-15
2022/03/15 16:26:27;;;;;;;7.28;2.78;;;;;;;;;;7330032;19;153773;-14
2022/03/15 16:28:58;;;;;;;3.20;2.70;;;;;;;;;;7332145;19;161738;-15
2022/03/15 16:31:42;;;;;;;3.72;2.50;;;;;;;;;;7330888;19;162592;-15
2022/03/15 16:34:13;;;;;;;3.08;2.35;;;;;;;;;;7332624;19;153980;-14
2022/03/15 16:36:45;;;;;;;4.80;2.42;;;;;;;;;;7333841;19;153536;-14
2022/03/15 16:39:19;;;;;;;3.55;2.55;;;;;;;;;;7333169;19;161883;-15
2022/03/15 16:41:50;;;;;;;4.70;2.33;;;;;;;;;;7329384;19;162567;-14
2022/03/15 16:44:22;;;;;;;3.63;2.08;;;;;;;;;;7332119;19;153942;-14
2022/03/15 16:46:53;;;;;;;2.85;1.98;;;;;;;;;;7333217;19;153504;-16
2022/03/15 16:49:26;;;;;;;3.57;2.30;;;;;;;;;;7327449;19;161954;-14
2022/03/15 16:52:00;;;;;;;3.83;2.47;;;;;;;;;;7329560;19;162411;-13
2022/03/15 16:54:36;;;;;;;3.22;2.35;;;;;;;;;;7327960;19;153984;-14
2022/03/15 16:57:09;;;;;;;3.17;2.10;;;;;;;;;;7324370;19;153677;-13
2022/03/15 16:59:44;;;;;;;4.47;2.35;;;;;;;;;;7327622;19;162319;-12
2022/03/15 17:02:16;;;;;;;6.18;2.70;;;;;;;;;;7324108;19;162467;-14
2022/03/15 17:07:31;;;;;;;3.60;2.20;;;;;;;;;;7330107;19;153655;-14
2022/03/15 17:10:06;;;;;;;4.07;2.20;;;;;;;;;;7327753;19;162025;-15
2022/03/15 17:12:41;;;;;;;6.65;2.70;;;;;;;;;;7328073;19;162548;-15
2022/03/15 17:15:13;;;;;;;6.32;2.90;;;;;;;;;;7328766;19;154728;-15
2022/03/15 17:17:47;;;;;;;5.97;2.70;;;;;;;;;;7331734;19;153988;-14
2022/03/15 17:20:21;;;;;;;5.72;2.65;;;;;;;;;;7331685;19;161847;-14
2022/03/15 17:23:00;;;;;;;4.78;2.33;;;;;;;;;;7331313;19;162523;-13
2022/03/15 17:25:36;;;;;;;4.97;2.30;;;;;;;;;;7327768;19;153990;-15
2022/03/15 17:28:13;;;;;;;5.45;2.40;;;;;;;;;;7327745;19;154039;-15
2022/03/15 17:30:45;;;;;;;3.92;2.33;;;;;;;;;;7329527;19;162104;-15
2022/03/15 17:33:16;;;;;;;3.53;2.10;;;;;;;;;;7329808;19;162747;-16
2022/03/15 17:35:48;;;;;;;5.95;2.35;;;;;;;;;;7332422;19;154037;-16
2022/03/15 17:38:19;;;;;;;5.80;2.72;;;;;;;;;;7332301;19;154206;-15
2022/03/15 17:40:56;;;;;;;5.07;2.35;;;;;;;;;;7330271;19;161931;-15
2022/03/15 17:43:29;;;;;;;4.93;2.10;;;;;;;;;;7330216;19;162555;-16
2022/03/15 17:46:09;;;;;;;4.55;2.50;;;;;;;;;;7330944;19;154081;-17
2022/03/15 17:48:40;;;;;;;6.00;2.63;;;;;;;;;;7329625;19;153696;-14
2022/03/15 17:51:12;;;;;;;4.85;2.33;;;;;;;;;;7331041;19;162127;-13
2022/03/15 17:53:43;;;;;;;3.03;2.30;;;;;;;;;;7331077;19;163128;-13
2022/03/15 17:56:17;;;;;;;4.90;2.05;;;;;;;;;;7331509;19;154207;-14
2022/03/15 17:58:52;;;;;;;3.40;2.05;;;;;;;;;;7329253;19;153994;-15
2022/03/15 18:01:29;;;;;;;5.22;2.30;;;;;;;;;;7329419;19;161898;-13
2022/03/15 18:04:01;;;;;;;5.15;2.45;;;;;;;;;;7329699;19;162558;-14
2022/03/15 18:06:34;;;;;;;8.68;2.60;;;;;;;;;;7330148;19;154016;-14
2022/03/15 18:09:05;;;;;;;3.13;2.03;;;;;;;;;;7330008;19;153518;-18
2022/03/15 18:11:40;;;;;;;2.85;2.22;;;;;;;;;;7329150;19;162236;-14
2022/03/15 18:14:15;;;;;;;2.67;2.17;;;;;;;;;;7330131;19;162546;-16
2022/03/15 18:16:48;;;;;;;3.95;2.17;;;;;;;;;;7329455;19;154255;-15
2022/03/15 18:19:22;;;;;;;3.95;2.10;;;;;;;;;;7330566;19;153835;-14
2022/03/15 18:21:54;;;;;;;3.05;1.80;;;;;;;;;;7328785;19;161959;-15
2022/03/15 18:24:25;;;;;;;5.77;2.43;;;;;;;;;;7331960;19;162791;-14
2022/03/15 18:26:59;;;;;;;2.40;2.20;;;;;;;;;;7336452;19;154103;-14
2022/03/15 18:29:31;;;;;;;5.45;2.00;;;;;;;;;;7336528;19;153915;-15
2022/03/15 18:32:04;;;;;;;2.95;2.03;;;;;;;;;;7336136;19;161826;-16
2022/03/15 18:34:47;;;;;;;3.75;2.17;;;;;;;;;;7336293;19;162561;-16
2022/03/15 18:37:18;;;;;;;3.90;1.67;;;;;;;;;;7337316;19;153996;-15
2022/03/15 18:39:50;;;;;;;4.63;2.00;;;;;;;;;;7337617;19;153467;-14
2022/03/15 18:42:24;;;;;;;3.35;2.13;;;;;;;;;;7335195;19;161890;-14
2022/03/15 18:44:57;;;;;;;3.17;2.22;;;;;;;;;;7336900;19;162472;-16
2022/03/15 18:47:29;;;;;;;3.10;2.05;;;;;;;;;;7335936;19;154188;-15
2022/03/15 18:50:00;;;;;;;2.70;2.30;;;;;;;;;;7336332;19;153778;-15
2022/03/15 18:52:32;;;;;;;2.70;2.50;;;;;;;;;;7335513;19;162298;-15
2022/03/15 18:55:03;;;;;;;2.90;2.03;;;;;;;;;;7335846;19;162560;-15
2022/03/15 18:57:37;;;;;;;3.67;1.88;;;;;;;;;;7336348;19;154115;-15
2022/03/15 19:00:11;;;;;;;5.25;2.55;;;;;;;;;;7336016;19;153559;-16
2022/03/15 19:02:44;;;;;;;5.25;2.85;;;;;;;;;;7334154;19;161987;-14
2022/03/15 19:05:16;;;;;;;5.33;2.47;;;;;;;;;;7336101;19;162591;-14
2022/03/15 19:07:49;;;;;;;4.78;2.92;;;;;;;;;;7336903;19;154018;-15
2022/03/15 19:10:22;;;;;;;7.47;2.78;;;;;;;;;;7336862;19;153667;-14
2022/03/15 19:13:02;;;;;;;5.78;3.15;;;;;;;;;;7336455;19;163223;-16
2022/03/15 19:15:34;;;;;;;7.85;3.17;;;;;;;;;;7335940;19;162385;-14
2022/03/15 19:18:08;;;;;;;6.05;3.15;;;;;;;;;;7335893;19;154104;-15
2022/03/15 19:20:41;;;;;;;3.95;3.05;;;;;;;;;;7335774;19;153656;-14
2022/03/15 19:23:14;;;;;;;7.60;3.58;;;;;;;;;;7333208;19;161968;-14
2022/03/15 19:25:47;;;;;;;5.47;3.28;;;;;;;;;;7335225;19;162396;-14
2022/03/15 19:28:21;;;;;;;5.60;3.03;;;;;;;;;;7328491;19;154001;-14
2022/03/15 19:30:53;;;;;;;4.32;2.80;;;;;;;;;;7329949;19;153587;-17
2022/03/15 19:33:25;;;;;;;4.67;2.60;;;;;;;;;;7330728;19;161879;-14
2022/03/15 19:35:56;;;;;;;3.25;2.50;;;;;;;;;;7332436;19;162381;-15
2022/03/15 19:38:28;;;;;;;5.35;2.83;;;;;;;;;;7333036;19;154009;-14
2022/03/15 19:40:59;;;;;;;5.15;2.50;;;;;;;;;;7332776;19;153803;-15
2022/03/15 19:43:40;;;;;;;5.20;2.15;;;;;;;;;;7330014;19;161814;-16
2022/03/15 19:46:13;;;;;;;4.35;2.67;;;;;;;;;;7332037;19;162367;-15
2022/03/15 19:48:49;;;;;;;4.43;2.72;;;;;;;;;;7330640;19;154085;-15
2022/03/15 19:51:21;;;;;;;5.43;2.63;;;;;;;;;;7332300;19;153818;-15
2022/03/15 19:53:52;;;;;;;7.83;4.10;;;;;;;;;;7331902;19;161870;-15
2022/03/15 19:56:24;;;;;;;8.38;4.13;;;;;;;;;;7331722;19;162470;-13
2022/03/15 19:58:58;;;;;;;7.63;3.97;;;;;;;;;;7333607;19;154051;-15
2022/03/15 20:01:30;;;;;;;5.93;3.63;;;;;;;;;;7332111;19;153831;-15
2022/03/15 20:04:01;;;;;;;7.35;3.92;;;;;;;;;;7331744;19;161956;-16
2022/03/15 20:06:33;;;;;;;6.43;3.67;;;;;;;;;;7331371;19;162465;-22
2022/03/15 20:09:08;;;;;;;6.05;3.65;;;;;;;;;;7332042;19;154003;-15
2022/03/15 20:11:42;;;;;;;11.07;5.97;;;;;;;;;;7331878;19;153552;-14
2022/03/15 20:14:17;;;;;;;13.27;5.68;;;;;;;;;;7333308;19;162087;-15
2022/03/15 20:16:51;;;;;;;9.18;4.40;;;;;;;;;;7329951;19;162345;-16
2022/03/15 20:19:25;;;;;;;9.50;4.45;;;;;;;;;;7331674;19;154026;-15
2022/03/15 20:21:57;;;;;;;76.75;33.42;;;;;;;;;;7331167;19;153833;-15
2022/03/15 20:24:30;;;;;;;73.43;30.80;;;;;;;;;;7329755;19;162013;-14
2022/03/15 20:27:02;;;;;;;;;;;;;;;;;;7331619;19;162746;-16
2022/03/15 20:29:37;;;;;;;62.92;24.38;;;;;;;;;;7333946;19;154193;-15
2022/03/15 20:32:09;;;;;;;39.28;14.48;;;;;;;;;;7331156;19;153597;-15
2022/03/15 20:34:41;;;;;;;57.30;25.90;;;;;;;;;;7330950;19;161823;-13
2022/03/15 20:37:12;;;;;;;240.27;120.55;;;;;;;;;;7330641;19;162357;-15
2022/03/15 20:39:44;;;;;;;355.48;186.95;;;;;;;;;;7331218;19;153969;-15
2022/03/15 20:42:16;;;;;;;507.13;305.20;;;;;;;;;;7330422;19;153786;-14
2022/03/15 20:44:47;;;;;;;497.80;301.15;;;;;;;;;;7332507;19;161619;-14
2022/03/15 20:47:19;;;;;;;436.73;253.68;;;;;;;;;;7327783;19;162545;-15
2022/03/15 20:49:50;;;;;;;412.10;243.18;;;;;;;;;;7327843;19;154031;-15
2022/03/15 20:52:21;;;;;;;416.55;235.80;;;;;;;;;;7330733;19;153794;-14
2022/03/15 20:54:53;;;;;;;399.30;226.20;;;;;;;;;;7329236;19;162128;-15
2022/03/15 20:57:26;;;;;;;387.70;226.88;;;;;;;;;;7330228;19;162421;-13
2022/03/15 21:00:00;;;;;;;;;;;;;;;;;;7332718;19;154236;-14
2022/03/15 21:02:31;;;;;;;358.50;203.05;;;;;;;;;;7328599;19;153284;-14
2022/03/15 21:05:06;;;;;;;346.83;194.43;;;;;;;;;;7327640;19;161816;-14
2022/03/15 21:07:38;;;;;;;320.05;172.80;;;;;;;;;;7326938;19;162365;-16
2022/03/15 21:10:09;;;;;;;332.50;181.35;;;;;;;;;;7329244;19;154084;-25
2022/03/15 21:12:43;;;;;;;335.27;181.18;;;;;;;;;;7330282;19;153788;-13
2022/03/15 21:15:17;;;;;;;335.73;180.35;;;;;;;;;;7333608;19;161951;-14
2022/03/15 21:17:52;;;;;;;320.30;178.70;;;;;;;;;;7329664;19;162700;-15
2022/03/15 21:20:26;;;;;;;318.52;169.40;;;;;;;;;;7329827;19;154017;-14
2022/03/15 21:22:58;;;;;;;314.93;178.50;;;;;;;;;;7328773;19;153840;-16
2022/03/15 21:25:29;;;;;;;319.73;179.77;;;;;;;;;;7329244;19;161987;-16
2022/03/15 21:28:01;;;;;;;319.10;181.50;;;;;;;;;;7330552;19;162543;-15
2022/03/15 21:30:36;;;;;;;304.60;170.10;;;;;;;;;;7333811;19;154044;-16
2022/03/15 21:33:07;;;;;;;308.98;173.05;;;;;;;;;;7329578;19;153680;-14
2022/03/15 21:35:39;;;;;;;316.10;180.80;;;;;;;;;;7327971;19;161875;-16
2022/03/15 21:38:11;;;;;;;305.40;170.63;;;;;;;;;;7327937;19;162515;-14
2022/03/15 21:40:45;;;;;;;303.75;173.45;;;;;;;;;;7329156;19;153980;-16
2022/03/15 21:43:17;;;;;;;293.05;165.70;;;;;;;;;;7326977;19;153693;-18
2022/03/15 21:45:51;;;;;;;298.80;162.55;;;;;;;;;;7328544;19;161783;-23
2022/03/15 21:48:23;;;;;;;286.13;163.20;;;;;;;;;;7327242;19;162383;-15
2022/03/15 21:50:54;;;;;;;301.60;167.43;;;;;;;;;;7328963;19;153981;-15
2022/03/15 21:53:27;;;;;;;304.05;166.77;;;;;;;;;;7328943;19;153731;-15
2022/03/15 21:55:59;;;;;;;292.30;171.65;;;;;;;;;;7327944;19;161892;-15
2022/03/15 21:58:33;;;;;;;289.98;166.05;;;;;;;;;;7329933;19;162423;-16
2022/03/15 22:01:08;;;;;;;278.90;152.93;;;;;;;;;;7336693;19;154210;-16
2022/03/15 22:03:39;;;;;;;289.67;164.75;;;;;;;;;;7338003;19;153682;-16
2022/03/15 22:06:11;;;;;;;285.52;157.90;;;;;;;;;;7336815;19;161917;-15
2022/03/15 22:08:44;;;;;;;284.65;160.65;;;;;;;;;;7337872;19;162589;-16
2022/03/15 22:11:17;;;;;;;273.58;160.48;;;;;;;;;;7338404;19;154008;-15
2022/03/15 22:13:48;;;;;;;275.08;156.30;;;;;;;;;;7337352;19;153685;-14
2022/03/15 22:16:23;;;;;;;262.42;153.73;;;;;;;;;;7337983;19;162072;-12
2022/03/15 22:18:54;;;;;;;277.98;158.65;;;;;;;;;;7336475;19;162591;-15
2022/03/15 22:21:26;;;;;;;258.92;155.45;;;;;;;;;;7337365;19;154106;-14
2022/03/15 22:24:00;;;;;;;271.30;159.20;;;;;;;;;;7335607;19;153823;-15
2022/03/15 22:26:32;;;;;;;263.55;153.30;;;;;;;;;;7337540;19;161758;-14
2022/03/15 22:29:05;;;;;;;260.75;152.02;;;;;;;;;;7335083;19;162346;-15
2022/03/15 23:17:26;;;;;;;230.73;135.52;;;;;;;;;;7336382;19;153830;-14
2022/03/15 23:22:45;;;;;;;142.57;84.85;;;;;;;;;;7335834;19;162721;-14
2022/03/15 23:25:18;;;;;;;144.43;84.70;;;;;;;;;;7334729;19;154183;-14
2022/03/15 23:27:53;;;;;;;162.10;96.63;;;;;;;;;;7335388;19;153633;-13
2022/03/15 23:30:25;;;;;;;159.70;94.00;;;;;;;;;;7334758;19;162079;-15
2022/03/15 23:32:57;;;;;;;154.15;90.90;;;;;;;;;;7337052;19;162429;-13
